Time;durP1;ratioP1;P1;durP2;ratioP2;P2;SDS_P1;SDS_P2;PMS_P1;PMS_P2;Temp;Humidity;BMP_temperature;BMP_pressure;BME280_temperature;BME280_humidity;BME280_pressure;Samples;Min_cycle;Max_cycle;Signal;HPM_P1;HPM_P2
2024/01/20 00:01:57;;;;;;;16.20;7.68;;;;;;;;;;4953307;28;20519;-81
2024/01/20 00:04:23;;;;;;;16.27;7.93;;;;;;;;;;4952908;28;20512;-82
2024/01/20 00:06:49;;;;;;;16.23;8.40;;;;;;;;;;4937332;28;21881;-82
2024/01/20 00:09:16;;;;;;;15.95;8.48;;;;;;;;;;4936297;29;20461;-82
2024/01/20 00:11:43;;;;;;;14.67;8.30;;;;;;;;;;4951886;28;20924;-81
2024/01/20 00:14:09;;;;;;;16.90;8.40;;;;;;;;;;4955973;28;20452;-81
2024/01/20 00:16:35;;;;;;;17.63;9.38;;;;;;;;;;4920448;28;20437;-81
2024/01/20 00:19:01;;;;;;;15.80;9.02;;;;;;;;;;4936699;28;20933;-81
2024/01/20 00:21:27;;;;;;;17.63;9.32;;;;;;;;;;4921919;28;20414;-81
2024/01/20 00:23:53;;;;;;;21.80;9.70;;;;;;;;;;4919762;28;20417;-81
2024/01/20 00:26:19;;;;;;;19.50;10.73;;;;;;;;;;4936645;28;20410;-81
2024/01/20 00:28:45;;;;;;;16.25;10.77;;;;;;;;;;4920724;29;20434;-81
2024/01/20 00:31:11;;;;;;;20.15;10.48;;;;;;;;;;4936783;29;20406;-81
2024/01/20 00:33:37;;;;;;;18.40;11.18;;;;;;;;;;4920062;29;20457;-81
2024/01/20 00:36:04;;;;;;;20.50;11.43;;;;;;;;;;4952784;28;20453;-81
2024/01/20 00:38:30;;;;;;;23.97;11.93;;;;;;;;;;4934852;29;20468;-81
2024/01/20 00:40:57;;;;;;;21.87;11.87;;;;;;;;;;4952750;28;20929;-81
2024/01/20 00:43:23;;;;;;;21.15;12.00;;;;;;;;;;4952741;28;20470;-81
2024/01/20 00:45:49;;;;;;;20.27;11.90;;;;;;;;;;4967873;28;20415;-81
2024/01/20 00:48:15;;;;;;;19.38;12.77;;;;;;;;;;4924007;29;20518;-81
2024/01/20 00:50:41;;;;;;;23.17;12.98;;;;;;;;;;4947661;28;20477;-81
2024/01/20 00:53:07;;;;;;;21.23;12.93;;;;;;;;;;4920756;28;20556;-81
2024/01/20 00:55:33;;;;;;;21.27;12.23;;;;;;;;;;4951700;28;20810;-81
2024/01/20 00:57:59;;;;;;;24.13;13.10;;;;;;;;;;4920933;29;20480;-81
2024/01/20 01:00:25;;;;;;;20.88;13.07;;;;;;;;;;4930199;29;20738;-80
2024/01/20 01:02:51;;;;;;;23.77;13.25;;;;;;;;;;4948590;28;20417;-81
2024/01/20 01:05:17;;;;;;;21.15;13.25;;;;;;;;;;4928292;29;20447;-81
2024/01/20 01:07:44;;;;;;;20.45;13.05;;;;;;;;;;4937681;29;20935;-81
2024/01/20 01:10:10;;;;;;;22.50;13.48;;;;;;;;;;4967579;28;20401;-81
2024/01/20 01:12:38;;;;;;;23.00;13.43;;;;;;;;;;4952603;28;20402;-81
2024/01/20 01:15:08;;;;;;;21.33;13.25;;;;;;;;;;4920586;29;20410;-81
2024/01/20 01:17:34;;;;;;;21.35;13.48;;;;;;;;;;4935975;29;20405;-81
2024/01/20 01:20:00;;;;;;;24.38;13.55;;;;;;;;;;4935921;29;20818;-80
2024/01/20 01:22:26;;;;;;;21.45;13.55;;;;;;;;;;4931004;29;20515;-81
2024/01/20 01:24:52;;;;;;;22.05;13.93;;;;;;;;;;4942171;28;20921;-81
2024/01/20 01:27:18;;;;;;;21.30;13.55;;;;;;;;;;4917662;29;20412;-80
2024/01/20 01:29:44;;;;;;;21.23;14.07;;;;;;;;;;4930287;28;20426;-81
2024/01/20 01:32:10;;;;;;;18.73;13.15;;;;;;;;;;4951826;28;20417;-80
2024/01/20 01:34:37;;;;;;;25.40;14.48;;;;;;;;;;4951593;28;20421;-80
2024/01/20 01:37:03;;;;;;;24.38;14.27;;;;;;;;;;4934970;29;20426;-80
2024/01/20 01:39:29;;;;;;;21.77;14.20;;;;;;;;;;4951495;28;20424;-80
2024/01/20 01:41:55;;;;;;;20.30;14.18;;;;;;;;;;4949376;28;20479;-80
2024/01/20 01:44:21;;;;;;;19.80;14.13;;;;;;;;;;4950179;28;20420;-80
2024/01/20 01:46:47;;;;;;;23.05;14.27;;;;;;;;;;4936235;29;20445;-80
2024/01/20 01:49:13;;;;;;;22.65;14.55;;;;;;;;;;4950996;28;20426;-80
2024/01/20 01:51:39;;;;;;;21.98;14.50;;;;;;;;;;4935246;29;20466;-80
2024/01/20 01:54:08;;;;;;;23.15;14.98;;;;;;;;;;4944919;28;20426;-80
2024/01/20 01:56:34;;;;;;;25.27;15.23;;;;;;;;;;4947279;28;20402;-80
2024/01/20 01:59:00;;;;;;;24.70;15.88;;;;;;;;;;4952245;28;20767;-80
2024/01/20 02:01:26;;;;;;;25.23;15.03;;;;;;;;;;4951333;28;20421;-79
2024/01/20 02:03:53;;;;;;;24.05;15.20;;;;;;;;;;4950490;28;20461;-80
2024/01/20 02:06:19;;;;;;;23.90;15.52;;;;;;;;;;4945099;28;20436;-79
2024/01/20 02:08:45;;;;;;;23.65;16.02;;;;;;;;;;4951356;28;20437;-80
2024/01/20 02:11:11;;;;;;;24.38;16.42;;;;;;;;;;4919334;28;20939;-80
2024/01/20 02:13:37;;;;;;;23.30;15.13;;;;;;;;;;4951306;28;20918;-80
2024/01/20 02:16:04;;;;;;;24.33;15.80;;;;;;;;;;4935246;28;20477;-80
2024/01/20 02:18:30;;;;;;;28.85;16.95;;;;;;;;;;4948459;28;20431;-81
2024/01/20 02:20:56;;;;;;;24.55;16.80;;;;;;;;;;4909419;28;20410;-80
2024/01/20 02:23:22;;;;;;;26.13;16.95;;;;;;;;;;4919642;29;20465;-80
2024/01/20 02:25:49;;;;;;;27.30;17.05;;;;;;;;;;4935587;28;20409;-80
2024/01/20 02:28:15;;;;;;;26.47;17.23;;;;;;;;;;4927272;29;20947;-81
2024/01/20 02:30:42;;;;;;;24.98;17.50;;;;;;;;;;4940683;28;20465;-80
2024/01/20 02:33:08;;;;;;;24.35;18.05;;;;;;;;;;4939052;29;20402;-80
2024/01/20 02:35:34;;;;;;;30.50;18.73;;;;;;;;;;4954703;29;20504;-80
2024/01/20 02:38:01;;;;;;;26.23;18.30;;;;;;;;;;4952932;28;20406;-81
2024/01/20 02:40:27;;;;;;;27.43;17.90;;;;;;;;;;4937437;28;20448;-80
2024/01/20 02:42:53;;;;;;;27.63;19.15;;;;;;;;;;4940084;28;20439;-81
2024/01/20 02:45:19;;;;;;;28.40;18.42;;;;;;;;;;4971613;28;20416;-80
2024/01/20 02:47:45;;;;;;;28.25;18.85;;;;;;;;;;4954707;28;20515;-79
2024/01/20 02:50:12;;;;;;;25.90;19.10;;;;;;;;;;4954450;28;20469;-79
2024/01/20 02:52:38;;;;;;;30.98;20.15;;;;;;;;;;4938194;29;20416;-80
2024/01/20 02:55:04;;;;;;;35.07;21.17;;;;;;;;;;4954516;28;20459;-79
2024/01/20 02:57:30;;;;;;;28.92;20.60;;;;;;;;;;4954290;28;20424;-79
2024/01/20 02:59:57;;;;;;;32.38;21.77;;;;;;;;;;4929953;29;20426;-79
2024/01/20 03:02:23;;;;;;;33.25;22.13;;;;;;;;;;4953825;28;20410;-80
2024/01/20 03:04:49;;;;;;;35.37;22.87;;;;;;;;;;4938424;29;20493;-79
2024/01/20 03:07:16;;;;;;;35.42;22.88;;;;;;;;;;4938495;28;20414;-80
2024/01/20 03:09:42;;;;;;;34.72;23.48;;;;;;;;;;4938163;28;20784;-80
2024/01/20 03:12:08;;;;;;;37.25;23.73;;;;;;;;;;4954483;28;20405;-80
2024/01/20 03:14:34;;;;;;;34.83;24.60;;;;;;;;;;4936872;28;20728;-79
2024/01/20 03:17:00;;;;;;;36.50;23.98;;;;;;;;;;4934826;28;20433;-79
2024/01/20 03:19:26;;;;;;;39.63;25.08;;;;;;;;;;4954480;28;20426;-79
2024/01/20 03:21:53;;;;;;;39.33;25.20;;;;;;;;;;4937871;29;20513;-80
2024/01/20 03:24:19;;;;;;;35.47;25.87;;;;;;;;;;4937817;29;20446;-79
2024/01/20 03:26:49;;;;;;;38.47;26.15;;;;;;;;;;4954232;28;20410;-79
2024/01/20 03:29:15;;;;;;;36.58;26.02;;;;;;;;;;4953918;28;20969;-79
2024/01/20 03:31:41;;;;;;;43.47;26.15;;;;;;;;;;4954207;28;20412;-79
2024/01/20 03:34:08;;;;;;;38.00;25.80;;;;;;;;;;4912417;29;20867;-80
2024/01/20 03:36:35;;;;;;;36.97;25.42;;;;;;;;;;4934885;29;20446;-79
2024/01/20 03:39:01;;;;;;;37.10;24.80;;;;;;;;;;4954062;28;20414;-79
2024/01/20 03:41:27;;;;;;;36.13;25.40;;;;;;;;;;4953787;28;20774;-80
2024/01/20 03:43:54;;;;;;;39.38;26.05;;;;;;;;;;4952018;28;20902;-79
2024/01/20 03:46:20;;;;;;;37.28;26.10;;;;;;;;;;4952740;28;20450;-79
2024/01/20 03:48:46;;;;;;;35.42;25.30;;;;;;;;;;4934439;29;20433;-79
2024/01/20 03:51:12;;;;;;;39.03;26.17;;;;;;;;;;4936453;28;20421;-79
2024/01/20 03:53:38;;;;;;;37.53;24.87;;;;;;;;;;4936934;28;20492;-79
2024/01/20 03:56:05;;;;;;;40.28;25.70;;;;;;;;;;4937431;29;20410;-80
2024/01/20 03:58:31;;;;;;;36.30;24.80;;;;;;;;;;4922052;29;20496;-79
2024/01/20 04:00:57;;;;;;;37.83;26.08;;;;;;;;;;4937505;29;20417;-79
2024/01/20 04:03:23;;;;;;;40.13;25.35;;;;;;;;;;4937196;29;20418;-79
2024/01/20 04:05:49;;;;;;;39.65;25.02;;;;;;;;;;4951137;28;20453;-79
2024/01/20 04:08:15;;;;;;;36.67;25.15;;;;;;;;;;4937270;28;20942;-79
2024/01/20 04:10:41;;;;;;;39.07;26.60;;;;;;;;;;4935081;28;20432;-79
2024/01/20 04:13:07;;;;;;;41.92;25.95;;;;;;;;;;4967242;28;20413;-80
2024/01/20 04:15:33;;;;;;;39.75;26.02;;;;;;;;;;4917506;29;20772;-78
2024/01/20 04:17:59;;;;;;;41.90;27.13;;;;;;;;;;4949314;28;20505;-79
2024/01/20 04:20:26;;;;;;;42.83;27.30;;;;;;;;;;4920295;29;20785;-79
2024/01/20 04:22:52;;;;;;;40.22;27.15;;;;;;;;;;4937694;28;20472;-79
2024/01/20 04:25:18;;;;;;;39.17;26.65;;;;;;;;;;4936455;29;20425;-79
2024/01/20 04:27:44;;;;;;;44.20;26.92;;;;;;;;;;4952698;28;20406;-79
2024/01/20 04:30:11;;;;;;;41.58;27.90;;;;;;;;;;4953135;28;20494;-79
2024/01/20 04:32:37;;;;;;;44.38;28.33;;;;;;;;;;4951972;28;20953;-79
2024/01/20 04:35:04;;;;;;;39.97;28.10;;;;;;;;;;4934988;29;20436;-79
2024/01/20 04:37:30;;;;;;;44.28;29.40;;;;;;;;;;4952922;28;20407;-79
2024/01/20 04:39:56;;;;;;;47.90;30.13;;;;;;;;;;4971826;28;20443;-79
2024/01/20 04:42:22;;;;;;;42.15;29.50;;;;;;;;;;4940613;28;20924;-79
2024/01/20 04:44:48;;;;;;;52.17;28.73;;;;;;;;;;4951660;28;20410;-79
2024/01/20 04:47:14;;;;;;;47.63;29.70;;;;;;;;;;4935962;28;20401;-79
2024/01/20 04:49:40;;;;;;;46.25;29.65;;;;;;;;;;4951665;28;20485;-79
2024/01/20 04:52:06;;;;;;;52.53;30.63;;;;;;;;;;4951865;28;20425;-79
2024/01/20 04:54:33;;;;;;;42.90;29.00;;;;;;;;;;4943119;28;20596;-79
2024/01/20 04:56:59;;;;;;;44.38;29.38;;;;;;;;;;4954604;28;20410;-79
2024/01/20 04:59:25;;;;;;;47.10;30.55;;;;;;;;;;4920725;29;20424;-79
2024/01/20 05:01:52;;;;;;;48.28;29.92;;;;;;;;;;4935107;29;20420;-78
2024/01/20 05:04:18;;;;;;;50.22;30.27;;;;;;;;;;4936112;28;20449;-78
2024/01/20 05:06:45;;;;;;;48.17;30.27;;;;;;;;;;4950430;28;20438;-79
2024/01/20 05:09:15;;;;;;;51.05;30.83;;;;;;;;;;4936008;28;20429;-80
2024/01/20 05:11:41;;;;;;;52.37;30.67;;;;;;;;;;4932443;28;20413;-80
2024/01/20 05:14:08;;;;;;;47.08;29.65;;;;;;;;;;4946665;28;20423;-80
2024/01/20 05:16:34;;;;;;;47.83;29.50;;;;;;;;;;4947067;28;20397;-80
2024/01/20 05:19:00;;;;;;;48.13;30.55;;;;;;;;;;4951886;28;20422;-80
2024/01/20 05:21:27;;;;;;;47.60;31.57;;;;;;;;;;4952215;29;20409;-80
2024/01/20 05:23:53;;;;;;;47.38;30.65;;;;;;;;;;4950775;28;20835;-80
2024/01/20 05:26:19;;;;;;;49.17;30.47;;;;;;;;;;4935389;28;20481;-80
2024/01/20 05:28:45;;;;;;;48.78;29.70;;;;;;;;;;4935957;29;20444;-80
2024/01/20 05:31:11;;;;;;;48.38;30.17;;;;;;;;;;4952022;29;20827;-80
2024/01/20 05:33:37;;;;;;;52.03;31.20;;;;;;;;;;4952218;28;20405;-80
2024/01/20 05:36:03;;;;;;;49.63;30.20;;;;;;;;;;4935322;28;20420;-80
2024/01/20 05:38:29;;;;;;;51.40;30.35;;;;;;;;;;4952237;28;20410;-80
2024/01/20 05:40:56;;;;;;;49.10;29.98;;;;;;;;;;4918815;28;20847;-79
2024/01/20 05:43:22;;;;;;;50.30;29.70;;;;;;;;;;4953691;28;20765;-79
2024/01/20 05:45:48;;;;;;;51.00;29.63;;;;;;;;;;4966639;28;20413;-79
2024/01/20 05:48:15;;;;;;;53.10;31.45;;;;;;;;;;4919778;28;20938;-79
2024/01/20 05:50:41;;;;;;;49.60;30.25;;;;;;;;;;4936919;29;20942;-79
2024/01/20 05:53:07;;;;;;;49.03;30.02;;;;;;;;;;4951772;28;20918;-79
2024/01/20 05:55:34;;;;;;;48.95;29.15;;;;;;;;;;4950535;28;20794;-79
2024/01/20 05:58:00;;;;;;;51.58;29.70;;;;;;;;;;4941414;28;20524;-79
2024/01/20 06:00:26;;;;;;;54.67;29.98;;;;;;;;;;4935579;28;20417;-79
2024/01/20 06:02:52;;;;;;;52.38;30.15;;;;;;;;;;4936466;29;20439;-79
2024/01/20 06:05:18;;;;;;;46.95;28.42;;;;;;;;;;4935706;28;21835;-79
2024/01/20 06:07:44;;;;;;;47.83;28.27;;;;;;;;;;4972354;28;20434;-79
2024/01/20 06:10:10;;;;;;;47.13;27.05;;;;;;;;;;4945160;29;20406;-79
2024/01/20 06:12:36;;;;;;;54.50;28.50;;;;;;;;;;4939672;28;20410;-79
2024/01/20 06:15:02;;;;;;;62.25;31.05;;;;;;;;;;4937827;29;20778;-79
2024/01/20 06:17:28;;;;;;;47.35;28.08;;;;;;;;;;4953689;28;20410;-79
2024/01/20 06:19:55;;;;;;;48.30;27.55;;;;;;;;;;4954131;28;20947;-79
2024/01/20 06:22:21;;;;;;;46.60;26.73;;;;;;;;;;4955498;28;20417;-79
2024/01/20 06:24:47;;;;;;;47.60;26.58;;;;;;;;;;4940111;29;20413;-79
2024/01/20 06:27:13;;;;;;;45.47;26.60;;;;;;;;;;4961233;28;20415;-80
2024/01/20 06:29:42;;;;;;;43.25;25.58;;;;;;;;;;4958504;28;20428;-79
2024/01/20 06:32:08;;;;;;;45.73;25.37;;;;;;;;;;4954807;28;20755;-79
2024/01/20 06:34:34;;;;;;;43.70;24.70;;;;;;;;;;4938643;28;20417;-79
2024/01/20 06:37:00;;;;;;;44.37;25.53;;;;;;;;;;4935372;28;20430;-79
2024/01/20 06:39:26;;;;;;;45.53;25.25;;;;;;;;;;4953114;28;20405;-79
2024/01/20 06:41:52;;;;;;;42.95;25.25;;;;;;;;;;4953474;28;20497;-79
2024/01/20 06:44:21;;;;;;;50.13;26.52;;;;;;;;;;4939160;29;20486;-79
2024/01/20 06:46:48;;;;;;;47.20;26.35;;;;;;;;;;4952794;28;20422;-79
2024/01/20 06:49:14;;;;;;;46.97;26.65;;;;;;;;;;4954017;28;20481;-77
2024/01/20 06:51:43;;;;;;;48.55;26.58;;;;;;;;;;4952472;28;20496;-77
2024/01/20 06:54:09;;;;;;;56.58;26.67;;;;;;;;;;4954236;28;20413;-77
2024/01/20 06:56:35;;;;;;;51.25;26.52;;;;;;;;;;4954465;28;20417;-77
2024/01/20 06:59:01;;;;;;;45.40;25.53;;;;;;;;;;4953663;28;20414;-77
2024/01/20 07:01:27;;;;;;;45.33;25.27;;;;;;;;;;4938361;28;20748;-76
2024/01/20 07:03:53;;;;;;;51.78;26.35;;;;;;;;;;4938410;29;20443;-77
2024/01/20 07:06:28;;;;;;;48.58;27.08;;;;;;;;;;4952167;28;20785;-77
2024/01/20 07:08:55;;;;;;;48.30;25.88;;;;;;;;;;4953340;28;20445;-77
2024/01/20 07:11:21;;;;;;;46.30;26.75;;;;;;;;;;4952685;28;20933;-77
2024/01/20 07:13:47;;;;;;;50.05;27.80;;;;;;;;;;4938309;28;20413;-78
2024/01/20 07:16:15;;;;;;;47.38;26.65;;;;;;;;;;4952044;28;20500;-77
2024/01/20 07:18:42;;;;;;;53.47;27.00;;;;;;;;;;4952580;28;20517;-77
2024/01/20 07:21:08;;;;;;;50.83;26.57;;;;;;;;;;4953513;28;21153;-77
2024/01/20 07:23:34;;;;;;;47.95;26.38;;;;;;;;;;4954233;28;20410;-81
2024/01/20 07:26:00;;;;;;;52.30;27.40;;;;;;;;;;4953954;28;20507;-80
2024/01/20 07:28:26;;;;;;;51.97;26.83;;;;;;;;;;4937776;29;20442;-78
2024/01/20 07:30:52;;;;;;;51.83;27.52;;;;;;;;;;4952884;28;20926;-78
2024/01/20 07:33:19;;;;;;;51.88;28.00;;;;;;;;;;4953305;28;20413;-79
2024/01/20 07:35:45;;;;;;;53.58;27.60;;;;;;;;;;4935303;29;20443;-80
2024/01/20 07:38:13;;;;;;;51.38;27.73;;;;;;;;;;4937572;29;20417;-79
2024/01/20 07:40:39;;;;;;;53.08;27.80;;;;;;;;;;4927699;28;20415;-79
2024/01/20 07:43:06;;;;;;;51.40;27.37;;;;;;;;;;4929612;28;20994;-78
2024/01/20 07:45:32;;;;;;;72.07;27.88;;;;;;;;;;4936251;28;20424;-77
2024/01/20 07:47:59;;;;;;;47.05;26.17;;;;;;;;;;4921217;28;20472;-78
2024/01/20 07:50:25;;;;;;;50.90;26.60;;;;;;;;;;4952990;28;20815;-78
2024/01/20 07:52:51;;;;;;;52.03;26.63;;;;;;;;;;4936903;29;20436;-78
2024/01/20 07:55:17;;;;;;;50.25;27.98;;;;;;;;;;4937536;28;20429;-79
2024/01/20 07:57:43;;;;;;;52.60;27.83;;;;;;;;;;4934521;28;20433;-78
2024/01/20 08:00:13;;;;;;;52.78;27.67;;;;;;;;;;4956379;28;20933;-79
2024/01/20 08:02:39;;;;;;;49.35;26.90;;;;;;;;;;4949938;28;20429;-79
2024/01/20 08:05:06;;;;;;;52.47;27.47;;;;;;;;;;4948461;29;20506;-78
2024/01/20 08:07:32;;;;;;;52.38;27.38;;;;;;;;;;4952456;28;20410;-78
2024/01/20 08:09:59;;;;;;;51.28;27.40;;;;;;;;;;4919387;29;20448;-78
2024/01/20 08:12:25;;;;;;;49.53;27.40;;;;;;;;;;4916367;28;20416;-78
2024/01/20 08:14:51;;;;;;;51.77;27.70;;;;;;;;;;4956613;28;20400;-77
2024/01/20 08:17:17;;;;;;;52.13;27.63;;;;;;;;;;4954548;28;20778;-79
2024/01/20 08:19:45;;;;;;;51.97;27.52;;;;;;;;;;4934801;28;20446;-80
2024/01/20 08:22:12;;;;;;;51.40;27.60;;;;;;;;;;4936078;29;20414;-79
2024/01/20 08:24:38;;;;;;;51.50;28.17;;;;;;;;;;4955225;28;20946;-79
2024/01/20 08:27:04;;;;;;;49.35;26.70;;;;;;;;;;4943197;29;20413;-79
2024/01/20 08:29:31;;;;;;;52.38;28.13;;;;;;;;;;4950983;28;20437;-79
2024/01/20 08:31:57;;;;;;;51.35;27.40;;;;;;;;;;4952624;28;20457;-79
2024/01/20 08:34:23;;;;;;;49.35;27.30;;;;;;;;;;4932147;29;20764;-79
2024/01/20 08:36:49;;;;;;;53.17;27.83;;;;;;;;;;4933209;28;20453;-78
2024/01/20 08:39:18;;;;;;;52.47;27.73;;;;;;;;;;4945806;28;21097;-77
2024/01/20 08:41:45;;;;;;;51.20;27.88;;;;;;;;;;4946832;28;20438;-79
2024/01/20 08:44:11;;;;;;;51.17;26.75;;;;;;;;;;4930358;28;20508;-78
2024/01/20 08:46:37;;;;;;;53.17;27.67;;;;;;;;;;4938830;28;20426;-78
2024/01/20 08:49:03;;;;;;;53.37;26.97;;;;;;;;;;4957551;28;20441;-78
2024/01/20 08:51:29;;;;;;;50.63;26.00;;;;;;;;;;4941813;28;20446;-79
2024/01/20 08:53:55;;;;;;;49.50;27.92;;;;;;;;;;4939388;28;20438;-79
2024/01/20 08:56:21;;;;;;;53.78;27.73;;;;;;;;;;4962280;28;20443;-79
2024/01/20 08:58:47;;;;;;;56.83;27.00;;;;;;;;;;4936370;28;20457;-78
2024/01/20 09:01:14;;;;;;;46.88;25.63;;;;;;;;;;4956592;28;20925;-79
2024/01/20 09:03:40;;;;;;;49.88;26.83;;;;;;;;;;4920508;28;20409;-79
2024/01/20 09:06:06;;;;;;;47.33;26.13;;;;;;;;;;4932616;29;20421;-79
2024/01/20 09:08:32;;;;;;;48.85;25.02;;;;;;;;;;4935103;29;20434;-79
2024/01/20 09:10:58;;;;;;;48.95;24.83;;;;;;;;;;4936448;29;20402;-79
2024/01/20 09:13:24;;;;;;;51.90;26.15;;;;;;;;;;4952640;28;20410;-79
2024/01/20 09:15:50;;;;;;;51.30;25.75;;;;;;;;;;4966205;28;20463;-80
2024/01/20 09:18:17;;;;;;;45.55;25.35;;;;;;;;;;4934696;28;20835;-82
2024/01/20 09:20:43;;;;;;;41.53;23.75;;;;;;;;;;4937957;28;20409;-83
2024/01/20 09:23:09;;;;;;;43.83;24.00;;;;;;;;;;4936897;29;20413;-83
2024/01/20 09:25:35;;;;;;;43.97;23.80;;;;;;;;;;4961949;28;20491;-83
2024/01/20 09:28:03;;;;;;;45.17;23.27;;;;;;;;;;4952034;28;20441;-82
2024/01/20 09:30:30;;;;;;;45.37;24.07;;;;;;;;;;4957475;28;20410;-80
2024/01/20 09:32:56;;;;;;;42.00;23.13;;;;;;;;;;4934982;29;20461;-79
2024/01/20 09:35:22;;;;;;;43.47;23.73;;;;;;;;;;4962659;28;20507;-79
2024/01/20 09:37:48;;;;;;;44.58;22.67;;;;;;;;;;4942559;28;20410;-79
2024/01/20 09:40:19;;;;;;;45.22;23.08;;;;;;;;;;4935979;28;20436;-81
2024/01/20 09:42:46;;;;;;;43.55;22.95;;;;;;;;;;4960310;28;20412;-79
2024/01/20 09:45:12;;;;;;;45.95;23.73;;;;;;;;;;4943731;28;20418;-78
2024/01/20 09:47:38;;;;;;;45.22;23.45;;;;;;;;;;4944831;28;20488;-78
2024/01/20 09:50:05;;;;;;;42.95;23.13;;;;;;;;;;4936744;28;20512;-79
2024/01/20 09:52:31;;;;;;;41.08;22.45;;;;;;;;;;4923452;28;20464;-79
2024/01/20 09:55:16;;;;;;;47.42;23.98;;;;;;;;;;4957334;28;20535;-79
2024/01/20 09:57:42;;;;;;;40.67;22.55;;;;;;;;;;4935636;28;20440;-79
2024/01/20 10:00:09;;;;;;;41.95;21.75;;;;;;;;;;4936781;28;20460;-78
2024/01/20 10:02:35;;;;;;;41.80;22.08;;;;;;;;;;4937570;29;20425;-78
2024/01/20 10:05:05;;;;;;;42.20;22.35;;;;;;;;;;4934232;28;20492;-78
2024/01/20 10:07:31;;;;;;;47.70;21.98;;;;;;;;;;4937146;28;20520;-78
2024/01/20 10:09:58;;;;;;;38.83;21.88;;;;;;;;;;4948784;28;20437;-78
2024/01/20 10:12:24;;;;;;;40.80;21.70;;;;;;;;;;4959340;28;20410;-79
2024/01/20 10:14:50;;;;;;;42.58;22.90;;;;;;;;;;4937835;28;20437;-78
2024/01/20 10:17:16;;;;;;;41.80;21.83;;;;;;;;;;4939556;28;20456;-79
2024/01/20 10:19:43;;;;;;;38.57;21.70;;;;;;;;;;4954305;28;20528;-78
2024/01/20 10:22:09;;;;;;;40.10;21.63;;;;;;;;;;4935699;29;20435;-79
2024/01/20 10:24:45;;;;;;;42.83;22.15;;;;;;;;;;4953859;28;20452;-78
2024/01/20 10:27:13;;;;;;;40.00;21.00;;;;;;;;;;4954416;28;20481;-79
2024/01/20 10:29:40;;;;;;;44.03;21.20;;;;;;;;;;4954190;28;20434;-80
2024/01/20 10:32:06;;;;;;;44.88;21.98;;;;;;;;;;4944179;29;20944;-79
2024/01/20 10:34:32;;;;;;;45.83;22.40;;;;;;;;;;4935436;28;20440;-78
2024/01/20 10:36:59;;;;;;;40.67;21.85;;;;;;;;;;4953210;28;20409;-79
2024/01/20 10:39:26;;;;;;;39.97;21.27;;;;;;;;;;4954248;28;20414;-79
2024/01/20 10:41:54;;;;;;;41.83;22.27;;;;;;;;;;4959403;28;20810;-79
2024/01/20 10:44:21;;;;;;;40.55;22.08;;;;;;;;;;4956199;28;20869;-79
2024/01/20 10:46:52;;;;;;;42.15;22.08;;;;;;;;;;4937954;29;20414;-79
2024/01/20 10:49:18;;;;;;;40.40;21.00;;;;;;;;;;4953777;28;20437;-79
2024/01/20 10:51:45;;;;;;;39.80;21.38;;;;;;;;;;4953636;28;20537;-79
2024/01/20 10:54:12;;;;;;;38.77;21.23;;;;;;;;;;4955286;28;20437;-79
2024/01/20 10:56:39;;;;;;;47.15;21.70;;;;;;;;;;4953310;28;20413;-80
2024/01/20 10:59:09;;;;;;;38.35;20.02;;;;;;;;;;4961818;28;20413;-79
2024/01/20 11:01:35;;;;;;;38.33;21.27;;;;;;;;;;4933673;28;20431;-79
2024/01/20 11:04:02;;;;;;;42.47;21.27;;;;;;;;;;4952768;28;20402;-79
2024/01/20 11:06:28;;;;;;;41.67;21.90;;;;;;;;;;4940322;29;20755;-84
2024/01/20 11:08:54;;;;;;;40.23;21.00;;;;;;;;;;4958840;28;20433;-83
2024/01/20 11:11:20;;;;;;;37.15;21.33;;;;;;;;;;4958736;29;20450;-84
2024/01/20 11:13:49;;;;;;;40.17;21.53;;;;;;;;;;4940424;29;20441;-84
2024/01/20 11:16:19;;;;;;;40.70;21.77;;;;;;;;;;4940691;29;20442;-83
2024/01/20 11:18:45;;;;;;;41.55;22.45;;;;;;;;;;4938985;28;20453;-84
2024/01/20 11:21:15;;;;;;;36.53;21.33;;;;;;;;;;4957839;28;20416;-83
2024/01/20 11:23:45;;;;;;;41.50;22.10;;;;;;;;;;4958742;28;20489;-82
2024/01/20 11:26:11;;;;;;;40.72;22.35;;;;;;;;;;4966535;28;20443;-84
2024/01/20 11:28:40;;;;;;;41.38;21.92;;;;;;;;;;4923028;29;21002;-84
2024/01/20 11:31:17;;;;;;;43.35;22.10;;;;;;;;;;4941007;28;20913;-84
2024/01/20 11:33:43;;;;;;;38.13;21.67;;;;;;;;;;4956151;28;20465;-85
2024/01/20 11:36:09;;;;;;;41.95;22.25;;;;;;;;;;4955641;28;20953;-85
2024/01/20 11:38:37;;;;;;;41.08;21.70;;;;;;;;;;4923978;28;20906;-84
2024/01/20 11:41:03;;;;;;;40.05;22.00;;;;;;;;;;4934610;29;20933;-84
2024/01/20 11:43:32;;;;;;;42.08;22.83;;;;;;;;;;4940306;29;20410;-85
2024/01/20 11:45:58;;;;;;;43.17;23.10;;;;;;;;;;4952270;28;20442;-85
2024/01/20 11:48:25;;;;;;;42.97;23.33;;;;;;;;;;4971393;28;20489;-85
2024/01/20 11:50:51;;;;;;;44.77;23.57;;;;;;;;;;4956446;28;20429;-84
2024/01/20 11:53:20;;;;;;;42.53;23.27;;;;;;;;;;4919607;29;20502;-84
2024/01/20 11:55:55;;;;;;;45.03;25.08;;;;;;;;;;4955111;28;20410;-86
2024/01/20 11:58:22;;;;;;;42.25;24.02;;;;;;;;;;4943383;28;20413;-85
2024/01/20 12:00:51;;;;;;;43.10;24.15;;;;;;;;;;4938813;29;20469;-85
2024/01/20 12:03:17;;;;;;;42.35;23.67;;;;;;;;;;4943125;28;20470;-85
2024/01/20 12:05:43;;;;;;;42.80;23.35;;;;;;;;;;4955014;28;20421;-85
2024/01/20 12:08:10;;;;;;;39.60;22.95;;;;;;;;;;4937628;29;20520;-85
2024/01/20 12:10:36;;;;;;;43.97;23.40;;;;;;;;;;4950251;28;20414;-85
2024/01/20 12:13:02;;;;;;;40.10;22.23;;;;;;;;;;4946604;28;20842;-84
2024/01/20 12:15:38;;;;;;;43.53;24.02;;;;;;;;;;4938527;29;20763;-85
2024/01/20 12:18:04;;;;;;;41.15;23.98;;;;;;;;;;4953277;28;20418;-85
2024/01/20 12:20:30;;;;;;;41.90;23.67;;;;;;;;;;4947249;28;20487;-85
2024/01/20 12:22:57;;;;;;;45.22;24.10;;;;;;;;;;4952436;28;20417;-85
2024/01/20 12:25:25;;;;;;;44.92;24.38;;;;;;;;;;4934218;28;20421;-84
2024/01/20 12:27:51;;;;;;;39.40;22.70;;;;;;;;;;4936545;29;20418;-84
2024/01/20 12:30:18;;;;;;;36.87;21.83;;;;;;;;;;4937705;29;20417;-83
2024/01/20 12:32:44;;;;;;;40.03;22.50;;;;;;;;;;4936716;28;20417;-85
2024/01/20 12:35:10;;;;;;;41.35;23.20;;;;;;;;;;4952954;28;20414;-84
2024/01/20 12:37:36;;;;;;;42.72;23.23;;;;;;;;;;4953799;28;20405;-84
2024/01/20 12:40:05;;;;;;;41.05;22.40;;;;;;;;;;4948311;28;20426;-84
2024/01/20 12:42:31;;;;;;;36.83;21.67;;;;;;;;;;4937136;29;20497;-84
2024/01/20 12:44:58;;;;;;;40.20;21.67;;;;;;;;;;4952676;28;20410;-84
2024/01/20 12:47:24;;;;;;;36.15;20.48;;;;;;;;;;4936900;29;20417;-84
2024/01/20 12:49:52;;;;;;;37.40;21.70;;;;;;;;;;4920544;28;20436;-83
2024/01/20 12:52:18;;;;;;;37.50;21.30;;;;;;;;;;4937183;29;20496;-84
2024/01/20 12:54:44;;;;;;;39.33;21.10;;;;;;;;;;4936366;28;20401;-84
2024/01/20 12:57:10;;;;;;;34.80;20.27;;;;;;;;;;4951604;28;20422;-84
2024/01/20 12:59:36;;;;;;;34.88;20.05;;;;;;;;;;4952994;28;20480;-83
2024/01/20 13:02:02;;;;;;;31.95;19.15;;;;;;;;;;4936100;29;20489;-83
2024/01/20 13:04:28;;;;;;;30.80;18.90;;;;;;;;;;4949571;28;20934;-84
2024/01/20 13:06:54;;;;;;;36.63;19.40;;;;;;;;;;4920384;29;20422;-84
2024/01/20 13:09:23;;;;;;;32.05;18.63;;;;;;;;;;4935106;28;20421;-84
2024/01/20 13:11:49;;;;;;;33.72;18.23;;;;;;;;;;4952386;28;20914;-83
2024/01/20 13:14:15;;;;;;;30.27;17.55;;;;;;;;;;4943426;28;20494;-84
2024/01/20 13:16:42;;;;;;;28.35;16.30;;;;;;;;;;4952357;28;20406;-84
2024/01/20 13:19:08;;;;;;;29.83;16.95;;;;;;;;;;4925115;29;20430;-84
2024/01/20 13:21:34;;;;;;;28.83;16.55;;;;;;;;;;4946516;28;20989;-84
2024/01/20 13:24:00;;;;;;;29.27;16.92;;;;;;;;;;4952181;28;20424;-83
2024/01/20 13:26:27;;;;;;;27.27;16.30;;;;;;;;;;4936771;29;20902;-84
2024/01/20 13:28:53;;;;;;;27.67;16.40;;;;;;;;;;4952052;28;20807;-83
2024/01/20 13:31:20;;;;;;;26.87;14.57;;;;;;;;;;4951179;28;20410;-83
2024/01/20 13:33:46;;;;;;;29.52;15.95;;;;;;;;;;4934040;29;20413;-84
2024/01/20 13:36:12;;;;;;;27.95;15.15;;;;;;;;;;4935625;28;20410;-83
2024/01/20 13:38:38;;;;;;;26.58;15.38;;;;;;;;;;4951922;28;20464;-83
2024/01/20 13:41:08;;;;;;;24.38;14.45;;;;;;;;;;4936747;29;20425;-83
2024/01/20 13:43:34;;;;;;;28.38;14.52;;;;;;;;;;4952390;28;20517;-83
2024/01/20 13:46:00;;;;;;;25.17;14.80;;;;;;;;;;4935990;28;20402;-83
2024/01/20 13:48:26;;;;;;;25.65;14.57;;;;;;;;;;4934891;29;20440;-83
2024/01/20 13:50:53;;;;;;;27.03;15.00;;;;;;;;;;4950952;28;20414;-84
2024/01/20 13:53:19;;;;;;;30.63;15.57;;;;;;;;;;4949519;28;20426;-83
2024/01/20 13:55:46;;;;;;;29.77;15.90;;;;;;;;;;4951726;28;20422;-83
2024/01/20 13:58:12;;;;;;;27.80;15.52;;;;;;;;;;4950725;28;20454;-83
2024/01/20 14:00:39;;;;;;;26.65;14.80;;;;;;;;;;4951670;28;20417;-84
2024/01/20 14:03:05;;;;;;;27.27;15.07;;;;;;;;;;4947029;28;20799;-83
2024/01/20 14:05:31;;;;;;;27.40;15.43;;;;;;;;;;4950614;28;20521;-84
2024/01/20 14:07:57;;;;;;;27.42;14.68;;;;;;;;;;4951007;28;20414;-83
2024/01/20 14:10:24;;;;;;;28.38;14.88;;;;;;;;;;4920306;29;20413;-84
2024/01/20 14:12:50;;;;;;;26.30;15.20;;;;;;;;;;4950714;28;20530;-83
2024/01/20 14:15:16;;;;;;;25.60;13.77;;;;;;;;;;4950821;28;20776;-84